createdAt,value
2022-08-03T00:00:29.658Z,1.20
2022-08-03T00:01:29.652Z,1.20
2022-08-03T00:02:29.639Z,1.20
2022-08-03T00:03:29.732Z,1.00
2022-08-03T00:04:34.086Z,0.90
2022-08-03T00:05:29.611Z,1.30
2022-08-03T00:06:33.748Z,1.30
2022-08-03T00:07:29.604Z,1.10
2022-08-03T00:08:29.579Z,1.00
2022-08-03T00:09:29.586Z,1.10
2022-08-03T00:10:29.563Z,1.10
2022-08-03T00:11:29.552Z,1.10
2022-08-03T00:12:29.542Z,1.20
2022-08-03T00:13:29.534Z,1.00
2022-08-03T00:14:29.535Z,1.20
2022-08-03T00:15:29.519Z,1.00
2022-08-03T00:16:29.501Z,1.20
2022-08-03T00:17:29.494Z,1.10
2022-08-03T00:18:29.500Z,1.20
2022-08-03T00:19:29.476Z,1.10
2022-08-03T00:20:29.464Z,1.50
2022-08-03T00:21:29.465Z,1.10
2022-08-03T00:22:29.441Z,1.30
2022-08-03T00:23:51.587Z,1.10
2022-08-03T00:24:29.429Z,1.40
2022-08-03T00:25:29.419Z,1.30
2022-08-03T00:26:29.413Z,1.30
2022-08-03T00:27:29.398Z,1.20
2022-08-03T00:28:29.397Z,1.10
2022-08-03T00:29:29.381Z,1.30
2022-08-03T00:30:30.884Z,1.10
2022-08-03T00:31:39.783Z,1.10
2022-08-03T00:32:29.351Z,1.20
2022-08-03T00:33:29.360Z,1.30
2022-08-03T00:34:36.394Z,1.20
2022-08-03T00:35:36.674Z,1.10
2022-08-03T00:36:29.314Z,1.10
2022-08-03T00:37:41.584Z,1.30
2022-08-03T00:38:29.309Z,1.30
2022-08-03T00:39:29.280Z,1.10
2022-08-03T00:40:29.268Z,1.30
2022-08-03T00:41:29.264Z,1.10
2022-08-03T00:42:29.250Z,1.10
2022-08-03T00:43:29.266Z,1.10
2022-08-03T00:44:29.228Z,0.90
2022-08-03T00:45:29.237Z,1.00
2022-08-03T00:46:29.211Z,0.80
2022-08-03T00:47:29.214Z,1.20
2022-08-03T00:48:32.917Z,1.00
2022-08-03T00:49:29.296Z,1.10
2022-08-03T00:50:29.167Z,1.00
2022-08-03T00:51:29.163Z,1.10
2022-08-03T00:52:29.154Z,1.10
2022-08-03T00:53:29.146Z,1.10
2022-08-03T00:54:29.147Z,1.20
2022-08-03T00:55:29.134Z,1.30
2022-08-03T00:56:29.112Z,1.70
2022-08-03T00:57:29.104Z,1.30
2022-08-03T00:58:29.098Z,1.30
2022-08-03T00:59:29.103Z,1.10
2022-08-03T01:00:29.074Z,1.40
2022-08-03T01:01:32.235Z,1.20
2022-08-03T01:02:29.054Z,1.00
2022-08-03T01:03:29.047Z,1.40
2022-08-03T01:04:29.047Z,1.00
2022-08-03T01:05:29.028Z,1.20
2022-08-03T01:06:29.015Z,0.90
2022-08-03T01:07:29.019Z,1.10
2022-08-03T01:08:28.993Z,1.40
2022-08-03T01:09:29.005Z,1.30
2022-08-03T01:10:28.975Z,1.10
2022-08-03T01:11:28.971Z,0.90
2022-08-03T01:12:28.954Z,1.20
2022-08-03T01:13:59.427Z,1.20
2022-08-03T01:14:28.952Z,1.00
2022-08-03T01:15:28.931Z,1.20
2022-08-03T01:16:36.962Z,1.20
2022-08-03T01:17:28.924Z,1.10
2022-08-03T01:18:28.897Z,1.50
2022-08-03T01:19:28.909Z,1.30
2022-08-03T01:20:28.879Z,1.20
2022-08-03T01:21:28.875Z,0.80
2022-08-03T01:22:28.859Z,1.30
2022-08-03T01:23:29.152Z,1.00
2022-08-03T01:24:28.854Z,1.20
2022-08-03T01:25:28.835Z,1.10
2022-08-03T01:26:28.821Z,1.20
2022-08-03T01:27:28.812Z,1.30
2022-08-03T01:28:28.804Z,1.10
2022-08-03T01:29:28.814Z,1.30
2022-08-03T01:30:28.780Z,1.00
2022-08-03T01:31:28.777Z,1.30
2022-08-03T01:32:58.410Z,1.20
2022-08-03T01:33:28.762Z,1.00
2022-08-03T01:34:28.759Z,1.50
2022-08-03T01:35:28.735Z,1.80
2022-08-03T01:36:28.723Z,1.30
2022-08-03T01:37:28.718Z,1.00
2022-08-03T01:38:28.702Z,1.20
2022-08-03T01:39:28.709Z,1.10
2022-08-03T01:40:28.682Z,1.30
2022-08-03T01:41:28.679Z,1.10
2022-08-03T01:42:28.664Z,1.40
2022-08-03T01:44:27.592Z,1.00
2022-08-03T01:44:34.877Z,1.10
2022-08-03T01:45:28.639Z,1.40
2022-08-03T01:46:28.639Z,1.20
2022-08-03T01:47:28.621Z,1.20
2022-08-03T01:48:28.604Z,1.10
2022-08-03T01:49:28.653Z,1.10
2022-08-03T01:50:28.586Z,1.40
2022-08-03T01:52:03.520Z,1.60
2022-08-03T01:52:28.571Z,1.10
2022-08-03T01:53:28.563Z,1.10
2022-08-03T01:54:28.563Z,1.10
2022-08-03T01:55:28.542Z,1.10
2022-08-03T01:56:28.526Z,1.40
2022-08-03T01:57:28.554Z,1.00
2022-08-03T01:58:28.506Z,1.20
2022-08-03T01:59:28.517Z,1.30
2022-08-03T02:00:28.488Z,1.90
2022-08-03T02:02:15.482Z,1.30
2022-08-03T02:02:37.381Z,1.00
2022-08-03T02:03:28.463Z,1.10
2022-08-03T02:04:28.463Z,1.30
2022-08-03T02:05:28.440Z,1.30
2022-08-03T02:07:02.356Z,1.30
2022-08-03T02:07:28.429Z,1.40
2022-08-03T02:08:28.406Z,1.20
2022-08-03T02:09:28.416Z,1.40
2022-08-03T02:10:34.582Z,1.50
2022-08-03T02:11:28.387Z,1.10
2022-08-03T02:12:28.375Z,1.30
2022-08-03T02:13:28.359Z,1.20
2022-08-03T02:14:28.366Z,1.30
2022-08-03T02:15:28.341Z,1.80
2022-08-03T02:16:28.335Z,1.40
2022-08-03T02:17:39.319Z,0.90
2022-08-03T02:18:28.320Z,1.60
2022-08-03T02:19:32.438Z,1.70
2022-08-03T02:20:28.306Z,1.10
2022-08-03T02:21:55.694Z,1.50
2022-08-03T02:22:28.281Z,1.10
2022-08-03T02:23:28.264Z,1.20
2022-08-03T02:24:28.296Z,1.20
2022-08-03T02:25:28.249Z,0.90
2022-08-03T02:26:28.241Z,1.40
2022-08-03T02:27:28.225Z,1.10
2022-08-03T02:28:28.242Z,1.20
2022-08-03T02:29:39.492Z,1.50
2022-08-03T02:30:28.202Z,1.00
2022-08-03T02:31:28.185Z,1.20
2022-08-03T02:32:28.177Z,1.40
2022-08-03T02:33:28.165Z,1.10
2022-08-03T02:34:28.172Z,1.30
2022-08-03T02:35:28.143Z,1.50
2022-08-03T02:36:28.139Z,0.90
2022-08-03T02:37:28.127Z,1.50
2022-08-03T02:38:28.121Z,1.40
2022-08-03T02:39:28.119Z,1.30
2022-08-03T02:40:28.104Z,1.40
2022-08-03T02:41:28.086Z,1.20
2022-08-03T02:42:28.081Z,1.30
2022-08-03T02:43:28.080Z,1.30
2022-08-03T02:44:28.085Z,1.10
2022-08-03T02:45:28.054Z,1.40
2022-08-03T02:46:28.042Z,1.40
2022-08-03T02:47:28.027Z,1.20
2022-08-03T02:48:28.023Z,1.60
2022-08-03T02:49:40.676Z,1.20
2022-08-03T02:50:28.011Z,1.40
2022-08-03T02:51:27.997Z,1.20
2022-08-03T02:52:27.987Z,1.40
2022-08-03T02:53:27.973Z,1.50
2022-08-03T02:54:27.991Z,1.50
2022-08-03T02:55:27.951Z,1.30
2022-08-03T02:56:27.944Z,1.00
2022-08-03T02:57:27.935Z,1.30
2022-08-03T02:58:27.925Z,1.40
2022-08-03T02:59:27.926Z,1.30
2022-08-03T03:00:28.726Z,1.10
2022-08-03T03:01:28.007Z,1.20
2022-08-03T03:02:27.888Z,1.10
2022-08-03T03:03:27.872Z,1.10
2022-08-03T03:04:31.308Z,1.40
2022-08-03T03:05:52.835Z,1.20
2022-08-03T03:06:29.304Z,1.30
2022-08-03T03:07:28.785Z,1.30
2022-08-03T03:08:28.898Z,1.10
2022-08-03T03:09:40.379Z,1.30
2022-08-03T03:10:27.819Z,1.50
2022-08-03T03:11:27.812Z,1.30
2022-08-03T03:12:33.792Z,1.10
2022-08-03T03:13:27.774Z,1.20
2022-08-03T03:14:33.631Z,1.40
2022-08-03T03:15:27.762Z,1.60
2022-08-03T03:16:27.748Z,1.30
2022-08-03T03:17:27.736Z,1.20
2022-08-03T03:18:27.732Z,1.20
2022-08-03T03:19:27.732Z,1.40
2022-08-03T03:20:29.997Z,1.10
2022-08-03T03:21:27.702Z,1.30
2022-08-03T03:22:27.690Z,1.20
2022-08-03T03:23:27.682Z,1.60
2022-08-03T03:24:27.686Z,1.70
2022-08-03T03:25:27.662Z,1.00
2022-08-03T03:26:27.653Z,1.30
2022-08-03T03:27:27.639Z,1.20
2022-08-03T03:28:27.632Z,1.40
2022-08-03T03:29:27.634Z,1.00
2022-08-03T03:30:27.626Z,0.90
2022-08-03T03:31:27.601Z,1.20
2022-08-03T03:32:27.604Z,1.30
2022-08-03T03:33:28.597Z,1.10
2022-08-03T03:34:27.592Z,1.10
2022-08-03T03:35:27.561Z,1.20
2022-08-03T03:36:27.560Z,1.30
2022-08-03T03:37:27.541Z,1.20
2022-08-03T03:38:27.541Z,1.30
2022-08-03T03:39:27.539Z,1.20
2022-08-03T03:40:27.518Z,1.20
2022-08-03T03:41:27.504Z,1.10
2022-08-03T03:42:27.503Z,0.90
2022-08-03T03:43:27.484Z,1.30
2022-08-03T03:44:27.478Z,1.00
2022-08-03T03:45:27.481Z,0.90
2022-08-03T03:46:27.458Z,1.20
2022-08-03T03:47:32.814Z,1.10
2022-08-03T03:48:27.450Z,1.00
2022-08-03T03:49:27.537Z,1.00
2022-08-03T03:50:27.435Z,1.00
2022-08-03T03:51:27.404Z,1.20
2022-08-03T03:52:27.403Z,1.60
2022-08-03T03:53:27.385Z,1.00
2022-08-03T03:54:29.114Z,1.10
2022-08-03T03:55:27.380Z,1.40
2022-08-03T03:56:27.360Z,1.40
2022-08-03T03:57:27.346Z,1.20
2022-08-03T03:58:27.341Z,1.30
2022-08-03T03:59:27.324Z,1.30
2022-08-03T04:00:27.405Z,1.10
2022-08-03T04:01:27.308Z,1.10
2022-08-03T04:02:27.301Z,1.00
2022-08-03T04:03:27.289Z,1.10
2022-08-03T04:04:27.289Z,1.10
2022-08-03T04:05:27.289Z,1.10
2022-08-03T04:06:27.264Z,0.90
2022-08-03T04:07:27.246Z,1.10
2022-08-03T04:08:27.247Z,1.40
2022-08-03T04:09:27.232Z,1.30
2022-08-03T04:10:27.240Z,1.00
2022-08-03T04:11:29.222Z,1.40
2022-08-03T04:12:27.205Z,1.30
2022-08-03T04:13:27.192Z,1.20
2022-08-03T04:14:27.184Z,1.30
2022-08-03T04:15:27.210Z,1.10
2022-08-03T04:16:27.167Z,0.90
2022-08-03T04:17:27.162Z,1.00
2022-08-03T04:18:27.144Z,1.20
2022-08-03T04:19:27.137Z,1.10
2022-08-03T04:20:27.139Z,1.30
2022-08-03T04:21:27.114Z,1.10
2022-08-03T04:22:27.107Z,1.10
2022-08-03T04:23:27.099Z,1.50
2022-08-03T04:24:27.089Z,1.30
2022-08-03T04:25:27.108Z,1.40
2022-08-03T04:26:27.078Z,1.20
2022-08-03T04:27:27.058Z,1.20
2022-08-03T04:28:31.217Z,0.80
2022-08-03T04:29:27.034Z,1.20
2022-08-03T04:30:27.059Z,1.00
2022-08-03T04:31:27.015Z,1.00
2022-08-03T04:32:27.010Z,1.20
2022-08-03T04:33:29.310Z,1.30
2022-08-03T04:34:26.993Z,1.20
2022-08-03T04:36:00.908Z,1.10
2022-08-03T04:36:26.976Z,1.20
2022-08-03T04:37:26.956Z,1.00
2022-08-03T04:38:26.955Z,1.20
2022-08-03T04:39:26.964Z,1.20
2022-08-03T04:40:29.754Z,1.50
2022-08-03T04:41:26.921Z,1.30
2022-08-03T04:42:26.911Z,1.50
2022-08-03T04:43:26.903Z,1.90
2022-08-03T04:44:28.622Z,1.80
2022-08-03T04:45:26.894Z,1.40
2022-08-03T04:46:26.877Z,1.50
2022-08-03T04:47:26.859Z,1.30
2022-08-03T04:48:26.852Z,1.20
2022-08-03T04:49:26.889Z,1.30
2022-08-03T04:50:26.835Z,1.60
2022-08-03T04:51:26.834Z,1.30
2022-08-03T04:52:26.817Z,1.40
2022-08-03T04:53:26.803Z,1.40
2022-08-03T04:54:26.797Z,1.30
2022-08-03T04:55:26.797Z,1.20
2022-08-03T04:56:26.777Z,1.30
2022-08-03T04:57:26.764Z,1.20
2022-08-03T04:58:26.757Z,1.40
2022-08-03T04:59:26.760Z,1.30
2022-08-03T05:00:26.751Z,1.50
2022-08-03T05:01:26.835Z,2.10
2022-08-03T05:02:26.719Z,1.50
2022-08-03T05:03:26.707Z,1.40
2022-08-03T05:04:26.702Z,2.00
2022-08-03T05:05:26.699Z,1.90
2022-08-03T05:06:26.682Z,1.40
2022-08-03T05:07:34.147Z,1.10
2022-08-03T05:08:27.755Z,1.40
2022-08-03T05:09:50.813Z,1.30
2022-08-03T05:10:26.662Z,1.50
2022-08-03T05:11:26.628Z,1.40
2022-08-03T05:12:32.027Z,1.90
2022-08-03T05:13:26.620Z,2.00
2022-08-03T05:14:28.256Z,2.30
2022-08-03T05:15:26.585Z,2.10
2022-08-03T05:16:26.595Z,2.10
2022-08-03T05:17:26.568Z,2.00
2022-08-03T05:18:26.562Z,1.90
2022-08-03T05:19:26.549Z,2.00
2022-08-03T05:20:26.543Z,2.00
2022-08-03T05:21:26.544Z,1.80
2022-08-03T05:22:26.530Z,1.80
2022-08-03T05:23:26.509Z,1.90
2022-08-03T05:24:26.506Z,2.20
2022-08-03T05:25:27.531Z,1.90
2022-08-03T05:26:26.486Z,1.90
2022-08-03T05:27:26.473Z,2.00
2022-08-03T05:28:26.464Z,1.90
2022-08-03T05:29:26.453Z,1.90
2022-08-03T05:30:33.610Z,2.00
2022-08-03T05:31:26.440Z,2.00
2022-08-03T05:32:26.429Z,1.80
2022-08-03T05:33:26.434Z,1.90
2022-08-03T05:34:26.408Z,2.20
2022-08-03T05:35:56.049Z,1.90
2022-08-03T05:36:26.398Z,1.90
2022-08-03T05:37:26.375Z,1.90
2022-08-03T05:38:28.678Z,1.70
2022-08-03T05:39:26.363Z,2.00
2022-08-03T05:40:26.817Z,2.20
2022-08-03T05:41:36.791Z,1.80
2022-08-03T05:42:26.339Z,1.50
2022-08-03T05:43:26.319Z,1.80
2022-08-03T05:44:26.316Z,1.70
2022-08-03T05:45:28.427Z,1.70
2022-08-03T05:46:26.310Z,1.70
2022-08-03T05:47:26.283Z,1.90
2022-08-03T05:48:26.273Z,1.70
2022-08-03T05:49:26.413Z,1.70
2022-08-03T05:50:26.257Z,1.60
2022-08-03T05:51:26.256Z,1.90
2022-08-03T05:52:26.409Z,1.80
2022-08-03T05:53:26.224Z,1.70
2022-08-03T05:54:26.219Z,1.70
2022-08-03T05:55:26.210Z,1.60
2022-08-03T05:56:26.221Z,1.60
2022-08-03T05:57:26.192Z,1.80
2022-08-03T05:58:26.183Z,1.60
2022-08-03T05:59:38.103Z,1.70
2022-08-03T06:00:26.167Z,1.80
2022-08-03T06:01:26.172Z,1.90
2022-08-03T06:02:26.144Z,1.70
2022-08-03T06:03:26.128Z,1.50
2022-08-03T06:04:26.134Z,1.80
2022-08-03T06:05:26.109Z,1.60
2022-08-03T06:06:29.355Z,1.70
2022-08-03T06:07:26.097Z,1.50
2022-08-03T06:08:26.085Z,1.60
2022-08-03T06:10:34.901Z,1.60
2022-08-03T06:10:42.217Z,1.60
2022-08-03T06:11:26.065Z,1.50
2022-08-03T06:12:26.050Z,1.90
2022-08-03T06:13:26.031Z,1.90
2022-08-03T06:14:26.028Z,1.90
2022-08-03T06:15:26.011Z,1.40
2022-08-03T06:16:26.021Z,1.40
2022-08-03T06:17:26.777Z,1.60
2022-08-03T06:18:25.985Z,1.60
2022-08-03T06:19:25.982Z,1.90
2022-08-03T06:20:27.316Z,1.90
2022-08-03T06:21:25.992Z,1.90
2022-08-03T06:22:25.948Z,1.70
2022-08-03T06:23:54.578Z,1.60
2022-08-03T06:24:25.934Z,1.60
2022-08-03T06:25:25.918Z,1.50
2022-08-03T06:26:25.918Z,1.60
2022-08-03T06:27:37.077Z,1.60
2022-08-03T06:29:25.885Z,1.70
2022-08-03T06:30:25.917Z,1.90
2022-08-03T06:31:33.142Z,1.50
2022-08-03T06:32:25.850Z,1.70
2022-08-03T06:33:25.845Z,1.60
2022-08-03T06:34:35.687Z,1.60
2022-08-03T06:35:25.820Z,1.40
2022-08-03T06:36:25.818Z,1.50
2022-08-03T06:37:25.800Z,1.50
2022-08-03T06:38:25.787Z,1.50
2022-08-03T06:39:25.798Z,1.20
2022-08-03T06:40:25.768Z,1.30
2022-08-03T06:41:25.777Z,1.50
2022-08-03T06:42:25.747Z,1.80
2022-08-03T06:43:25.747Z,1.60
2022-08-03T06:44:25.734Z,1.60
2022-08-03T06:45:25.721Z,1.40
2022-08-03T06:46:25.998Z,1.60
2022-08-03T06:47:25.704Z,1.40
2022-08-03T06:48:25.690Z,1.50
2022-08-03T06:49:25.760Z,1.50
2022-08-03T06:50:26.273Z,1.80
2022-08-03T06:52:04.568Z,1.50
2022-08-03T06:52:37.650Z,1.40
2022-08-03T06:53:25.654Z,1.50
2022-08-03T06:54:25.629Z,1.60
2022-08-03T06:55:25.622Z,1.50
2022-08-03T06:56:25.625Z,1.40
2022-08-03T06:57:25.606Z,1.50
2022-08-03T06:58:25.591Z,1.60
2022-08-03T07:00:08.895Z,1.30
2022-08-03T07:00:25.584Z,1.60
2022-08-03T07:01:25.640Z,1.60
2022-08-03T07:02:28.259Z,1.50
2022-08-03T07:03:25.552Z,1.40
2022-08-03T07:04:25.537Z,1.50
2022-08-03T07:05:25.530Z,1.40
2022-08-03T07:06:25.533Z,1.50
2022-08-03T07:07:25.516Z,1.50
2022-08-03T07:08:33.567Z,1.50
2022-08-03T07:09:25.498Z,1.50
2022-08-03T07:10:25.478Z,1.50
2022-08-03T07:11:25.473Z,1.30
2022-08-03T07:12:25.468Z,1.50
2022-08-03T07:13:25.457Z,1.40
2022-08-03T07:14:25.436Z,1.50
2022-08-03T07:15:55.258Z,1.40
2022-08-03T07:16:25.427Z,1.50
2022-08-03T07:17:25.429Z,1.40
2022-08-03T07:18:29.148Z,1.30
2022-08-03T07:19:25.395Z,1.50
2022-08-03T07:20:27.938Z,1.30
2022-08-03T07:21:25.374Z,1.40
2022-08-03T07:22:25.373Z,1.50
2022-08-03T07:23:25.357Z,1.40
2022-08-03T07:24:25.340Z,1.20
2022-08-03T07:25:25.376Z,0.90
2022-08-03T07:26:25.322Z,1.10
2022-08-03T07:27:25.333Z,1.60
2022-08-03T07:28:25.304Z,1.30
2022-08-03T07:29:25.296Z,1.50
2022-08-03T07:30:25.289Z,1.40
2022-08-03T07:31:25.282Z,1.60
2022-08-03T07:32:25.276Z,1.30
2022-08-03T07:33:25.265Z,1.50
2022-08-03T07:34:25.248Z,1.50
2022-08-03T07:35:25.604Z,1.50
2022-08-03T07:36:26.191Z,1.60
2022-08-03T07:37:25.234Z,1.50
2022-08-03T07:38:25.211Z,1.50
2022-08-03T07:39:25.204Z,1.50
2022-08-03T07:40:28.186Z,1.50
2022-08-03T07:41:25.188Z,1.50
2022-08-03T07:42:25.180Z,1.80
2022-08-03T07:43:25.164Z,1.80
2022-08-03T07:44:25.149Z,1.50
2022-08-03T07:45:25.149Z,1.40
2022-08-03T07:46:25.129Z,1.70
2022-08-03T07:47:25.136Z,1.60
2022-08-03T07:48:25.132Z,1.60
2022-08-03T07:49:25.203Z,1.40
2022-08-03T07:50:25.092Z,1.50
2022-08-03T07:51:25.087Z,1.60
2022-08-03T07:52:25.096Z,1.60
2022-08-03T07:53:25.111Z,1.60
2022-08-03T07:54:25.054Z,1.40
2022-08-03T07:55:25.054Z,1.70
2022-08-03T07:56:25.033Z,1.70
2022-08-03T07:57:25.029Z,1.60
2022-08-03T07:58:25.031Z,1.60
2022-08-03T07:59:25.009Z,1.40
2022-08-03T08:00:24.994Z,1.50
2022-08-03T08:01:25.078Z,1.40
2022-08-03T08:02:24.974Z,1.70
2022-08-03T08:03:24.985Z,1.70
2022-08-03T08:04:24.960Z,1.70
2022-08-03T08:05:24.951Z,1.50
2022-08-03T08:06:24.941Z,1.50
2022-08-03T08:07:24.933Z,1.60
2022-08-03T08:08:24.932Z,1.70
2022-08-03T08:09:24.915Z,1.60
2022-08-03T08:10:24.900Z,1.60
2022-08-03T08:11:24.895Z,1.40
2022-08-03T08:12:24.879Z,1.50
2022-08-03T08:13:24.896Z,1.30
2022-08-03T08:14:24.862Z,1.60
2022-08-03T08:15:24.856Z,1.40
2022-08-03T08:16:24.842Z,1.60
2022-08-03T08:17:24.839Z,1.60
2022-08-03T08:18:24.834Z,1.50
2022-08-03T08:19:24.817Z,1.40
2022-08-03T08:20:28.105Z,1.40
2022-08-03T08:21:24.799Z,1.70
2022-08-03T08:22:30.216Z,1.50
2022-08-03T08:23:42.584Z,1.50
2022-08-03T08:24:24.771Z,1.50
2022-08-03T08:25:24.771Z,1.30
2022-08-03T08:26:24.748Z,1.50
2022-08-03T08:27:24.740Z,1.40
2022-08-03T08:28:30.160Z,1.70
2022-08-03T08:29:24.733Z,1.60
2022-08-03T08:30:24.712Z,1.60
2022-08-03T08:31:24.704Z,1.70
2022-08-03T08:32:24.690Z,1.70
2022-08-03T08:33:25.849Z,1.60
2022-08-03T08:34:24.670Z,1.70
2022-08-03T08:35:24.669Z,1.50
2022-08-03T08:36:24.650Z,1.70
2022-08-03T08:37:24.650Z,1.60
2022-08-03T08:38:24.649Z,1.50
2022-08-03T08:39:24.638Z,1.70
2022-08-03T08:40:24.617Z,1.50
2022-08-03T08:41:24.611Z,2.00
2022-08-03T08:42:24.606Z,1.80
2022-08-03T08:43:24.609Z,1.50
2022-08-03T08:44:24.579Z,1.70
2022-08-03T08:45:24.575Z,1.60
2022-08-03T08:46:24.559Z,1.50
2022-08-03T08:47:24.556Z,1.60
2022-08-03T08:48:24.556Z,1.50
2022-08-03T08:49:24.594Z,1.80
2022-08-03T08:50:27.807Z,1.50
2022-08-03T08:51:24.518Z,1.80
2022-08-03T08:52:29.468Z,1.60
2022-08-03T08:53:27.297Z,1.70
2022-08-03T08:54:24.493Z,1.40
2022-08-03T08:55:24.479Z,1.80
2022-08-03T08:56:24.464Z,1.70
2022-08-03T08:57:41.770Z,1.60
2022-08-03T08:58:24.479Z,1.70
2022-08-03T08:59:24.440Z,1.70
2022-08-03T09:00:24.428Z,1.60
2022-08-03T09:01:24.551Z,1.60
2022-08-03T09:02:24.416Z,1.70
2022-08-03T09:03:29.697Z,1.80
2022-08-03T09:04:24.396Z,1.80
2022-08-03T09:05:36.266Z,1.50
2022-08-03T09:06:24.392Z,1.50
2022-08-03T09:07:24.367Z,1.40
2022-08-03T09:08:24.369Z,1.50
2022-08-03T09:10:10.500Z,1.80
2022-08-03T09:10:24.341Z,1.70
2022-08-03T09:11:53.457Z,1.60
2022-08-03T09:13:33.481Z,1.30
2022-08-03T09:14:45.416Z,1.30
2022-08-03T09:15:34.463Z,0.90
2022-08-03T09:16:34.442Z,0.90
2022-08-03T09:17:34.437Z,1.60
2022-08-03T09:18:34.437Z,1.70
2022-08-03T09:19:34.418Z,1.10
2022-08-03T09:20:34.403Z,1.30
2022-08-03T09:21:34.966Z,1.60
2022-08-03T09:22:34.390Z,1.60
2022-08-03T09:23:51.680Z,1.40
2022-08-03T09:24:41.199Z,1.40
2022-08-03T09:25:34.365Z,1.30
2022-08-03T09:26:34.349Z,1.40
2022-08-03T09:27:34.343Z,1.50
2022-08-03T09:28:56.577Z,1.40
2022-08-03T09:29:34.328Z,1.50
2022-08-03T09:30:35.375Z,1.30
2022-08-03T09:31:34.304Z,1.30
2022-08-03T09:32:34.292Z,1.40
2022-08-03T09:33:34.841Z,1.50
2022-08-03T09:34:34.268Z,1.40
2022-08-03T09:36:34.527Z,1.40
2022-08-03T09:38:12.554Z,1.40
2022-08-03T09:38:34.249Z,1.30
2022-08-03T09:39:42.147Z,1.30
2022-08-03T09:40:34.217Z,1.40
2022-08-03T09:41:34.206Z,1.10
2022-08-03T09:42:34.193Z,1.30
2022-08-03T09:43:34.201Z,1.00
2022-08-03T09:44:34.171Z,0.90
2022-08-03T09:45:34.175Z,0.90
2022-08-03T09:46:34.151Z,0.70
2022-08-03T09:47:34.154Z,0.80
2022-08-03T09:48:34.146Z,0.90
2022-08-03T09:49:34.209Z,0.80
2022-08-03T09:50:34.112Z,0.70
2022-08-03T09:52:30.076Z,0.90
2022-08-03T09:52:50.078Z,0.90
2022-08-03T09:53:34.107Z,0.70
2022-08-03T09:54:34.074Z,1.10
2022-08-03T09:56:34.033Z,0.70
2022-08-03T09:56:41.093Z,0.80
2022-08-03T09:57:34.052Z,0.90
2022-08-03T09:58:34.046Z,0.60
2022-08-03T09:59:34.027Z,0.70
2022-08-03T10:00:34.014Z,0.90
2022-08-03T10:01:34.173Z,1.00
2022-08-03T10:02:33.997Z,0.90
2022-08-03T10:03:34.009Z,1.10
2022-08-03T10:04:34.001Z,0.90
2022-08-03T10:05:33.972Z,0.60
2022-08-03T10:06:33.954Z,0.80
2022-08-03T10:07:33.951Z,0.70
2022-08-03T10:08:33.941Z,0.70
2022-08-03T10:09:33.949Z,1.00
2022-08-03T10:10:33.916Z,1.00
2022-08-03T10:11:40.550Z,0.80
2022-08-03T10:12:33.902Z,0.80
2022-08-03T10:13:33.891Z,1.00
2022-08-03T10:14:33.892Z,0.70
2022-08-03T10:16:22.240Z,0.80
2022-08-03T10:16:33.861Z,0.90
2022-08-03T10:17:38.607Z,1.00
2022-08-03T10:18:33.845Z,0.90
2022-08-03T10:19:33.852Z,0.90
2022-08-03T10:20:33.824Z,0.80
2022-08-03T10:21:33.820Z,0.90
2022-08-03T10:22:33.798Z,0.80
2022-08-03T10:23:34.125Z,1.10
2022-08-03T10:24:33.790Z,0.90
2022-08-03T10:25:33.954Z,0.70
2022-08-03T10:26:33.759Z,0.90
2022-08-03T10:27:33.768Z,0.80
2022-08-03T10:28:33.741Z,1.00
2022-08-03T10:29:33.748Z,0.80
2022-08-03T10:30:33.719Z,1.00
2022-08-03T10:31:33.713Z,0.90
2022-08-03T10:32:33.699Z,0.90
2022-08-03T10:33:49.976Z,0.70
2022-08-03T10:34:33.701Z,0.90
2022-08-03T10:35:33.675Z,0.80
2022-08-03T10:36:33.661Z,0.50
2022-08-03T10:37:33.657Z,0.90
2022-08-03T10:38:33.658Z,0.70
2022-08-03T10:39:33.647Z,0.70
2022-08-03T10:40:48.071Z,0.60
2022-08-03T10:41:33.623Z,0.60
2022-08-03T10:42:33.602Z,0.90
2022-08-03T10:43:33.597Z,1.00
2022-08-03T10:44:33.604Z,0.80
2022-08-03T10:45:33.577Z,1.20
2022-08-03T10:46:33.564Z,0.90
2022-08-03T10:47:33.560Z,0.90
2022-08-03T10:48:33.545Z,0.90
2022-08-03T10:49:35.238Z,1.00
2022-08-03T10:50:33.524Z,0.90
2022-08-03T10:51:33.523Z,1.10
2022-08-03T10:52:36.056Z,0.80
2022-08-03T10:53:33.511Z,0.80
2022-08-03T10:54:33.506Z,0.90
2022-08-03T10:55:33.479Z,0.90
2022-08-03T10:56:48.051Z,0.70
2022-08-03T10:57:33.469Z,0.80
2022-08-03T10:58:33.449Z,1.20
2022-08-03T10:59:33.460Z,0.90
2022-08-03T11:00:33.467Z,0.70
2022-08-03T11:01:58.306Z,0.70
2022-08-03T11:02:33.417Z,0.70
2022-08-03T11:03:33.407Z,0.90
2022-08-03T11:04:33.407Z,0.70
2022-08-03T11:05:33.389Z,0.70
2022-08-03T11:06:37.301Z,1.00
2022-08-03T11:07:33.368Z,0.80
2022-08-03T11:08:33.359Z,1.00
2022-08-03T11:09:33.362Z,0.80
2022-08-03T11:10:33.329Z,0.90
2022-08-03T11:11:33.330Z,0.80
2022-08-03T11:12:33.311Z,0.80
2022-08-03T11:13:33.309Z,0.70
2022-08-03T11:14:33.309Z,1.10
2022-08-03T11:15:33.287Z,0.80
2022-08-03T11:16:33.273Z,1.00
2022-08-03T11:17:33.269Z,1.10
2022-08-03T11:18:33.256Z,0.90
2022-08-03T11:19:33.271Z,0.80
2022-08-03T11:20:33.239Z,1.00
2022-08-03T11:21:33.227Z,0.70
2022-08-03T11:22:33.217Z,0.80
2022-08-03T11:24:03.305Z,0.90
2022-08-03T11:24:33.224Z,1.10
2022-08-03T11:25:54.116Z,0.80
2022-08-03T11:26:33.324Z,0.90
2022-08-03T11:27:33.168Z,0.70
2022-08-03T11:28:33.152Z,0.70
2022-08-03T11:29:33.152Z,1.00
2022-08-03T11:30:33.157Z,1.00
2022-08-03T11:31:49.258Z,0.80
2022-08-03T11:32:33.121Z,0.80
2022-08-03T11:33:33.114Z,1.10
2022-08-03T11:34:33.097Z,1.00
2022-08-03T11:35:33.107Z,0.90
2022-08-03T11:36:33.093Z,0.90
2022-08-03T11:37:33.516Z,0.70
2022-08-03T11:38:33.060Z,1.00
2022-08-03T11:39:33.065Z,0.70
2022-08-03T11:40:33.059Z,0.80
2022-08-03T11:41:33.038Z,0.80
2022-08-03T11:42:33.027Z,0.80
2022-08-03T11:43:33.016Z,1.10
2022-08-03T11:44:33.013Z,1.10
2022-08-03T11:45:33.008Z,0.90
2022-08-03T11:46:32.981Z,0.70
2022-08-03T11:47:32.974Z,0.80
2022-08-03T11:48:32.974Z,0.90
2022-08-03T11:49:32.989Z,1.30
2022-08-03T11:50:32.959Z,1.00
2022-08-03T11:51:32.956Z,0.80
2022-08-03T11:52:32.937Z,0.90
2022-08-03T11:53:32.917Z,0.70
2022-08-03T11:54:32.908Z,0.90
2022-08-03T11:55:32.911Z,0.80
2022-08-03T11:56:33.665Z,1.00
2022-08-03T11:59:00.814Z,0.90
2022-08-03T11:59:25.487Z,1.10
2022-08-03T11:59:32.863Z,1.00
2022-08-03T12:00:32.888Z,1.00
2022-08-03T12:01:32.845Z,1.10
2022-08-03T12:02:32.826Z,0.80
2022-08-03T12:03:33.006Z,0.90
2022-08-03T12:04:32.803Z,1.00
2022-08-03T12:05:32.813Z,0.90
2022-08-03T12:06:32.782Z,0.80
2022-08-03T12:08:03.779Z,0.80
2022-08-03T12:08:32.928Z,0.90
2022-08-03T12:09:32.762Z,0.90
2022-08-03T12:10:32.761Z,1.00
2022-08-03T12:11:32.742Z,0.80
2022-08-03T12:12:32.730Z,0.80
2022-08-03T12:14:26.926Z,0.90
2022-08-03T12:14:54.056Z,0.90
2022-08-03T12:15:32.717Z,0.80
2022-08-03T12:16:32.692Z,1.10
2022-08-03T12:17:32.681Z,0.90
2022-08-03T12:18:32.674Z,0.60
2022-08-03T12:19:32.661Z,0.80
2022-08-03T12:20:35.251Z,0.90
2022-08-03T12:21:32.639Z,0.80
2022-08-03T12:22:32.636Z,0.80
2022-08-03T12:23:36.051Z,0.80
2022-08-03T12:24:32.622Z,0.80
2022-08-03T12:25:39.646Z,1.00
2022-08-03T12:26:32.602Z,0.80
2022-08-03T12:27:32.584Z,0.80
2022-08-03T12:28:37.832Z,0.90
2022-08-03T12:29:32.574Z,0.70
2022-08-03T12:30:32.559Z,0.80
2022-08-03T12:31:32.555Z,1.00
2022-08-03T12:32:32.537Z,1.00
2022-08-03T12:33:32.523Z,0.80
2022-08-03T12:34:32.523Z,0.90
2022-08-03T12:35:32.505Z,0.80
2022-08-03T12:36:32.542Z,1.00
2022-08-03T12:37:32.891Z,0.90
2022-08-03T12:38:32.481Z,1.10
2022-08-03T12:39:32.468Z,0.90
2022-08-03T12:40:32.460Z,0.70
2022-08-03T12:41:34.135Z,0.80
2022-08-03T12:42:32.451Z,0.90
2022-08-03T12:43:37.982Z,0.80
2022-08-03T12:44:32.428Z,0.90
2022-08-03T12:45:32.405Z,0.70
2022-08-03T12:46:32.422Z,0.80
2022-08-03T12:47:32.387Z,0.90
2022-08-03T12:48:32.384Z,1.00
2022-08-03T12:49:32.404Z,0.70
2022-08-03T12:50:32.369Z,1.10
2022-08-03T12:51:32.389Z,0.80
2022-08-03T12:52:33.542Z,0.90
2022-08-03T12:53:32.337Z,1.00
2022-08-03T12:54:32.328Z,0.80
2022-08-03T12:55:32.312Z,0.80
2022-08-03T12:56:32.314Z,1.00
2022-08-03T12:57:32.308Z,0.80
2022-08-03T12:58:32.286Z,0.90
2022-08-03T12:59:35.226Z,0.90
2022-08-03T13:00:32.269Z,0.90
2022-08-03T13:01:32.314Z,1.10
2022-08-03T13:02:32.309Z,0.70
2022-08-03T13:03:41.926Z,0.90
2022-08-03T13:04:33.696Z,1.00
2022-08-03T13:05:32.231Z,1.00
2022-08-03T13:06:32.216Z,1.00
2022-08-03T13:07:32.216Z,1.30
2022-08-03T13:08:32.193Z,0.80
2022-08-03T13:09:32.180Z,0.90
2022-08-03T13:10:32.177Z,1.00
2022-08-03T13:11:57.448Z,0.80
2022-08-03T13:12:32.179Z,0.90
2022-08-03T13:13:32.152Z,0.90
2022-08-03T13:14:32.144Z,1.10
2022-08-03T13:15:34.571Z,1.00
2022-08-03T13:16:32.124Z,0.80
2022-08-03T13:17:32.123Z,0.80
2022-08-03T13:18:32.102Z,0.80
2022-08-03T13:19:32.086Z,0.70
2022-08-03T13:20:32.081Z,0.80
2022-08-03T13:21:32.091Z,0.80